sensor_id;sensor_type;location;lat;lon;timestamp;pressure;altitude;pressure_sealevel;temperature;humidity
30614;BME280;17381;51.690;5.270;2022-08-19T04:36:42;101348.25;;;18.07;71.12
30614;BME280;17381;51.690;5.270;2022-08-19T09:30:51;101490.13;;;20.65;71.16
30614;BME280;17381;51.690;5.270;2022-08-19T09:58:30;101497.66;;;20.89;70.44
30614;BME280;17381;51.690;5.270;2022-08-19T10:01:07;101494.78;;;20.92;70.53
30614;BME280;17381;51.690;5.270;2022-08-19T10:03:56;101506.75;;;21.01;70.33
30614;BME280;17381;51.690;5.270;2022-08-19T10:06:57;101512.59;;;21.07;69.96
30614;BME280;17381;51.690;5.270;2022-08-19T10:13:18;101493.69;;;21.10;69.93
30614;BME280;17381;51.690;5.270;2022-08-19T10:16:09;101506.34;;;21.23;69.92
30614;BME280;17381;51.690;5.270;2022-08-19T10:18:57;101508.81;;;21.26;70.00
30614;BME280;17381;51.690;5.270;2022-08-19T10:21:58;101499.75;;;21.28;69.82
30614;BME280;17381;51.690;5.270;2022-08-19T10:24:42;101492.59;;;21.29;69.76
30614;BME280;17381;51.690;5.270;2022-08-19T10:27:38;101476.94;;;21.37;69.76
30614;BME280;17381;51.690;5.270;2022-08-19T10:30:50;101485.59;;;21.56;69.33
30614;BME280;17381;51.690;5.270;2022-08-19T10:34:08;101477.66;;;21.69;69.09
30614;BME280;17381;51.690;5.270;2022-08-19T10:40:04;101480.03;;;22.03;68.49
30614;BME280;17381;51.690;5.270;2022-08-19T10:42:51;101488.97;;;22.30;68.68
30614;BME280;17381;51.690;5.270;2022-08-19T10:45:52;101479.91;;;22.60;68.41
30614;BME280;17381;51.690;5.270;2022-08-19T10:52:50;101472.72;;;22.88;66.81
30614;BME280;17381;51.690;5.270;2022-08-19T11:19:14;101465.66;;;24.14;64.32
30614;BME280;17381;51.690;5.270;2022-08-19T11:34:24;101455.78;;;24.87;62.72
30614;BME280;17381;51.690;5.270;2022-08-19T11:37:51;101449.72;;;25.08;61.86
30614;BME280;17381;51.690;5.270;2022-08-19T11:41:23;101449.50;;;25.22;60.87
30614;BME280;17381;51.690;5.270;2022-08-19T11:44:16;101436.09;;;25.33;60.77
30614;BME280;17381;51.690;5.270;2022-08-19T11:47:30;101436.34;;;25.41;59.99
30614;BME280;17381;51.690;5.270;2022-08-19T11:50:31;101408.69;;;25.28;59.86
30614;BME280;17381;51.690;5.270;2022-08-19T11:53:37;101422.38;;;25.36;60.11
30614;BME280;17381;51.690;5.270;2022-08-19T11:56:36;101434.00;;;25.37;59.65
30614;BME280;17381;51.690;5.270;2022-08-19T11:59:41;101434.34;;;25.32;59.56
30614;BME280;17381;51.690;5.270;2022-08-19T12:02:34;101432.66;;;25.20;59.54
30614;BME280;17381;51.690;5.270;2022-08-19T12:05:33;101438.94;;;25.08;59.31
30614;BME280;17381;51.690;5.270;2022-08-19T12:08:33;101444.53;;;24.93;59.50
30614;BME280;17381;51.690;5.270;2022-08-19T12:11:30;101432.72;;;24.72;59.32
30614;BME280;17381;51.690;5.270;2022-08-19T12:41:29;101444.63;;;23.95;61.64
30614;BME280;17381;51.690;5.270;2022-08-19T12:51:49;101447.88;;;23.88;61.94
30614;BME280;17381;51.690;5.270;2022-08-19T12:55:15;101436.94;;;23.78;61.98
30614;BME280;17381;51.690;5.270;2022-08-19T12:58:11;101433.28;;;23.66;62.08
30614;BME280;17381;51.690;5.270;2022-08-19T13:01:18;101427.69;;;23.57;62.10
30614;BME280;17381;51.690;5.270;2022-08-19T13:04:34;101442.94;;;23.56;61.96
30614;BME280;17381;51.690;5.270;2022-08-19T13:07:35;101437.28;;;23.48;62.52
30614;BME280;17381;51.690;5.270;2022-08-19T13:19:03;101446.09;;;23.37;64.16
30614;BME280;17381;51.690;5.270;2022-08-19T13:26:05;101440.59;;;23.51;64.09
30614;BME280;17381;51.690;5.270;2022-08-19T13:32:25;101435.66;;;23.84;64.06
30614;BME280;17381;51.690;5.270;2022-08-19T13:38:48;101430.78;;;24.26;63.69
30614;BME280;17381;51.690;5.270;2022-08-19T13:41:45;101426.34;;;24.62;63.10
30614;BME280;17381;51.690;5.270;2022-08-19T13:44:54;101419.91;;;25.22;63.09
30614;BME280;17381;51.690;5.270;2022-08-19T13:47:51;101417.59;;;25.62;62.95
30614;BME280;17381;51.690;5.270;2022-08-19T13:50:55;101426.06;;;25.69;61.26
30614;BME280;17381;51.690;5.270;2022-08-19T13:54:03;101409.41;;;25.53;61.01
30614;BME280;17381;51.690;5.270;2022-08-19T13:57:01;101415.28;;;25.58;60.95
30614;BME280;17381;51.690;5.270;2022-08-19T13:59:57;101393.72;;;25.80;61.24
30614;BME280;17381;51.690;5.270;2022-08-19T14:03:06;101403.13;;;26.08;60.68
30614;BME280;17381;51.690;5.270;2022-08-19T14:06:03;101400.31;;;25.99;60.10
30614;BME280;17381;51.690;5.270;2022-08-19T14:09:00;101407.72;;;25.85;59.58
30614;BME280;17381;51.690;5.270;2022-08-19T14:12:05;101394.13;;;25.64;60.29
30614;BME280;17381;51.690;5.270;2022-08-19T14:14:58;101402.44;;;25.50;60.17
30614;BME280;17381;51.690;5.270;2022-08-19T14:17:52;101405.63;;;25.44;60.30
30614;BME280;17381;51.690;5.270;2022-08-19T14:21:13;101400.34;;;25.42;60.92
30614;BME280;17381;51.690;5.270;2022-08-19T14:24:10;101399.63;;;25.52;60.96
30614;BME280;17381;51.690;5.270;2022-08-19T14:34:08;101386.69;;;26.76;59.26
30614;BME280;17381;51.690;5.270;2022-08-19T14:37:19;101380.78;;;27.03;58.94
30614;BME280;17381;51.690;5.270;2022-08-19T14:40:16;101369.47;;;27.40;57.54
30614;BME280;17381;51.690;5.270;2022-08-19T14:43:36;101385.72;;;27.50;55.42
30614;BME280;17381;51.690;5.270;2022-08-19T14:46:44;101383.09;;;27.38;55.50
30614;BME280;17381;51.690;5.270;2022-08-19T14:50:04;101386.69;;;27.18;55.38
30614;BME280;17381;51.690;5.270;2022-08-19T14:53:06;101380.81;;;26.92;55.26
30614;BME280;17381;51.690;5.270;2022-08-19T14:56:06;101389.47;;;26.65;55.31
30614;BME280;17381;51.690;5.270;2022-08-19T14:59:14;101376.59;;;26.25;55.32
30614;BME280;17381;51.690;5.270;2022-08-19T15:02:17;101389.53;;;25.99;55.97
30614;BME280;17381;51.690;5.270;2022-08-19T15:05:10;101378.19;;;25.73;56.52
30614;BME280;17381;51.690;5.270;2022-08-19T15:08:14;101388.13;;;25.50;56.92
30614;BME280;17381;51.690;5.270;2022-08-19T15:15:14;101415.22;;;25.01;59.01
30614;BME280;17381;51.690;5.270;2022-08-19T15:20:40;101414.91;;;24.71;60.31
30614;BME280;17381;51.690;5.270;2022-08-19T15:42:33;101420.59;;;23.94;65.26
30614;BME280;17381;51.690;5.270;2022-08-19T15:53:27;101427.28;;;23.76;66.79
30614;BME280;17381;51.690;5.270;2022-08-19T15:56:02;101422.16;;;23.72;66.93
30614;BME280;17381;51.690;5.270;2022-08-19T15:58:46;101422.16;;;23.72;67.05
30614;BME280;17381;51.690;5.270;2022-08-19T16:01:37;101424.28;;;23.67;66.90
30614;BME280;17381;51.690;5.270;2022-08-19T16:04:28;101422.75;;;23.63;67.39
30614;BME280;17381;51.690;5.270;2022-08-19T16:07:21;101394.34;;;23.48;67.40
30614;BME280;17381;51.690;5.270;2022-08-19T16:10:39;101422.84;;;23.62;67.69
30614;BME280;17381;51.690;5.270;2022-08-19T16:13:23;101415.78;;;23.61;67.69
30614;BME280;17381;51.690;5.270;2022-08-19T16:31:54;101431.06;;;23.47;68.79
30614;BME280;17381;51.690;5.270;2022-08-19T16:34:47;101434.38;;;23.51;68.55
30614;BME280;17381;51.690;5.270;2022-08-19T16:37:25;101429.44;;;23.45;68.88
30614;BME280;17381;51.690;5.270;2022-08-19T16:40:04;101437.28;;;23.48;68.79
30614;BME280;17381;51.690;5.270;2022-08-19T16:42:48;101424.94;;;23.45;68.95
30614;BME280;17381;51.690;5.270;2022-08-19T16:45:36;101434.91;;;23.43;69.04
30614;BME280;17381;51.690;5.270;2022-08-19T16:48:22;101429.75;;;23.40;69.08
30614;BME280;17381;51.690;5.270;2022-08-19T16:51:51;101450.38;;;23.40;69.33
30614;BME280;17381;51.690;5.270;2022-08-19T16:54:43;101440.81;;;23.36;69.03
30614;BME280;17381;51.690;5.270;2022-08-19T17:00:30;101449.59;;;23.12;70.14
30614;BME280;17381;51.690;5.270;2022-08-19T17:03:16;101451.97;;;23.04;70.78
30614;BME280;17381;51.690;5.270;2022-08-19T17:06:06;101450.94;;;22.92;71.54
30614;BME280;17381;51.690;5.270;2022-08-19T17:15:56;101439.31;;;22.79;73.27
30614;BME280;17381;51.690;5.270;2022-08-19T17:25:24;101429.75;;;22.62;74.12
30614;BME280;17381;51.690;5.270;2022-08-19T17:28:41;101431.38;;;22.64;73.93
30614;BME280;17381;51.690;5.270;2022-08-19T17:31:41;101431.59;;;22.61;74.38
30614;BME280;17381;51.690;5.270;2022-08-19T17:34:39;101435.88;;;22.64;74.49
30614;BME280;17381;51.690;5.270;2022-08-19T17:37:33;101426.31;;;22.60;74.49
30614;BME280;17381;51.690;5.270;2022-08-19T17:40:33;101398.84;;;22.43;74.53
30614;BME280;17381;51.690;5.270;2022-08-19T17:43:52;101426.31;;;22.60;74.68
30614;BME280;17381;51.690;5.270;2022-08-19T17:46:37;101423.28;;;22.52;74.75
30614;BME280;17381;51.690;5.270;2022-08-19T17:53:42;101437.00;;;22.47;74.60
30614;BME280;17381;51.690;5.270;2022-08-19T17:56:16;101439.19;;;22.40;74.87
30614;BME280;17381;51.690;5.270;2022-08-19T17:58:56;101408.06;;;22.25;74.98
30614;BME280;17381;51.690;5.270;2022-08-19T18:01:26;101443.63;;;22.41;74.96
30614;BME280;17381;51.690;5.270;2022-08-19T18:08:01;101447.66;;;22.34;75.40
30614;BME280;17381;51.690;5.270;2022-08-19T18:11:11;101447.38;;;22.39;75.48
30614;BME280;17381;51.690;5.270;2022-08-19T18:14:37;101444.88;;;22.36;75.53
30614;BME280;17381;51.690;5.270;2022-08-19T18:17:47;101454.63;;;22.37;75.67
30614;BME280;17381;51.690;5.270;2022-08-19T18:20:44;101460.75;;;22.39;75.37
30614;BME280;17381;51.690;5.270;2022-08-19T18:24:12;101467.19;;;22.36;75.45
30614;BME280;17381;51.690;5.270;2022-08-19T18:27:08;101433.81;;;22.13;75.61
30614;BME280;17381;51.690;5.270;2022-08-19T18:29:46;101461.13;;;22.33;75.63
30614;BME280;17381;51.690;5.270;2022-08-19T18:32:25;101429.59;;;22.09;75.53
30614;BME280;17381;51.690;5.270;2022-08-19T18:35:37;101477.41;;;22.30;75.46
30614;BME280;17381;51.690;5.270;2022-08-19T18:38:13;101467.97;;;22.24;75.76
30614;BME280;17381;51.690;5.270;2022-08-19T18:48:57;101477.06;;;21.93;75.43
30614;BME280;17381;51.690;5.270;2022-08-19T19:06:30;101505.09;;;21.73;76.05
30614;BME280;17381;51.690;5.270;2022-08-19T19:09:23;101502.41;;;21.73;76.05
30614;BME280;17381;51.690;5.270;2022-08-19T19:12:07;101508.72;;;21.72;76.04
30614;BME280;17381;51.690;5.270;2022-08-19T19:18:19;101516.75;;;21.72;75.88
30614;BME280;17381;51.690;5.270;2022-08-19T19:25:07;101526.97;;;21.65;75.70
30614;BME280;17381;51.690;5.270;2022-08-19T20:43:46;101542.94;;;21.22;76.00
30614;BME280;17381;51.690;5.270;2022-08-19T20:54:32;101550.66;;;21.27;76.11
30614;BME280;17381;51.690;5.270;2022-08-19T20:57:22;101548.09;;;21.25;75.94
30614;BME280;17381;51.690;5.270;2022-08-19T20:59:59;101541.09;;;21.23;76.03
30614;BME280;17381;51.690;5.270;2022-08-19T21:02:31;101539.78;;;21.30;76.10
30614;BME280;17381;51.690;5.270;2022-08-19T21:04:58;101538.75;;;21.32;75.97
30614;BME280;17381;51.690;5.270;2022-08-19T21:07:31;101540.38;;;21.35;75.96
30614;BME280;17381;51.690;5.270;2022-08-19T21:10:24;101530.03;;;21.29;75.73
30614;BME280;17381;51.690;5.270;2022-08-19T21:13:05;101525.66;;;21.28;75.77
30614;BME280;17381;51.690;5.270;2022-08-19T21:15:52;101524.69;;;21.29;75.77
30614;BME280;17381;51.690;5.270;2022-08-19T21:26:15;101532.91;;;21.26;75.71
30614;BME280;17381;51.690;5.270;2022-08-19T21:36:51;101533.44;;;21.17;75.92
30614;BME280;17381;51.690;5.270;2022-08-19T21:39:36;101522.91;;;21.13;76.04
30614;BME280;17381;51.690;5.270;2022-08-19T21:42:28;101538.03;;;21.15;75.97
30614;BME280;17381;51.690;5.270;2022-08-19T21:45:09;101539.66;;;21.17;75.99
30614;BME280;17381;51.690;5.270;2022-08-19T21:48:01;101534.59;;;21.12;75.84
30614;BME280;17381;51.690;5.270;2022-08-19T21:54:54;101555.00;;;21.13;75.90
30614;BME280;17381;51.690;5.270;2022-08-19T21:57:34;101554.22;;;21.11;75.95
30614;BME280;17381;51.690;5.270;2022-08-19T22:00:21;101515.59;;;20.87;75.73
30614;BME280;17381;51.690;5.270;2022-08-19T22:03:05;101546.31;;;21.10;75.84
30614;BME280;17381;51.690;5.270;2022-08-19T22:05:43;101537.69;;;21.05;75.84
30614;BME280;17381;51.690;5.270;2022-08-19T22:24:16;101545.38;;;20.95;75.99
30614;BME280;17381;51.690;5.270;2022-08-19T22:27:03;101539.44;;;20.90;76.23
30614;BME280;17381;51.690;5.270;2022-08-19T22:29:59;101535.47;;;20.97;76.22
30614;BME280;17381;51.690;5.270;2022-08-19T22:32:34;101514.13;;;20.81;76.16
30614;BME280;17381;51.690;5.270;2022-08-19T22:35:25;101535.28;;;21.00;76.21
30614;BME280;17381;51.690;5.270;2022-08-19T22:38:15;101538.81;;;21.01;76.24
30614;BME280;17381;51.690;5.270;2022-08-19T22:41:19;101540.72;;;20.99;75.99
30614;BME280;17381;51.690;5.270;2022-08-19T22:44:00;101549.81;;;20.96;76.17
30614;BME280;17381;51.690;5.270;2022-08-19T22:46:35;101545.38;;;20.95;76.22
30614;BME280;17381;51.690;5.270;2022-08-19T22:49:14;101540.41;;;20.89;76.03
30614;BME280;17381;51.690;5.270;2022-08-19T22:59:27;101513.13;;;20.68;76.18
30614;BME280;17381;51.690;5.270;2022-08-19T23:02:05;101557.50;;;20.86;76.13
30614;BME280;17381;51.690;5.270;2022-08-19T23:04:47;101548.88;;;20.81;76.08
30614;BME280;17381;51.690;5.270;2022-08-19T23:07:25;101559.31;;;20.86;76.31
30614;BME280;17381;51.690;5.270;2022-08-19T23:10:43;101554.72;;;20.88;76.05
30614;BME280;17381;51.690;5.270;2022-08-19T23:17:23;101556.09;;;20.79;76.42
30614;BME280;17381;51.690;5.270;2022-08-19T23:20:14;101552.59;;;20.79;76.40
30614;BME280;17381;51.690;5.270;2022-08-19T23:23:19;101554.47;;;20.77;76.54
30614;BME280;17381;51.690;5.270;2022-08-19T23:26:03;101549.91;;;20.79;76.42
30614;BME280;17381;51.690;5.270;2022-08-19T23:33:01;101550.09;;;20.76;76.49
30614;BME280;17381;51.690;5.270;2022-08-19T23:35:42;101541.28;;;20.74;76.63
30614;BME280;17381;51.690;5.270;2022-08-19T23:38:28;101503.34;;;20.51;76.51
30614;BME280;17381;51.690;5.270;2022-08-19T23:41:15;101537.84;;;20.72;76.52
30614;BME280;17381;51.690;5.270;2022-08-19T23:44:03;101543.00;;;20.75;76.48
30614;BME280;17381;51.690;5.270;2022-08-19T23:46:42;101540.44;;;20.73;76.67
30614;BME280;17381;51.690;5.270;2022-08-19T23:49:46;101546.47;;;20.77;76.44
30614;BME280;17381;51.690;5.270;2022-08-19T23:52:26;101480.97;;;20.38;76.62
30614;BME280;17381;51.690;5.270;2022-08-19T23:55:11;101543.00;;;20.75;76.48
30614;BME280;17381;51.690;5.270;2022-08-19T23:57:46;101540.50;;;20.72;76.58
